Time;durP1;ratioP1;P1;durP2;ratioP2;P2;SDS_P1;SDS_P2;PMS_P1;PMS_P2;Temp;Humidity;BMP_temperature;BMP_pressure;BME280_temperature;BME280_humidity;BME280_pressure;Samples;Min_cycle;Max_cycle;Signal;HPM_P1;HPM_P2
2022/10/16 00:01:29;;;;;;;2.47;0.70;;;16.50;99.90;;;;;;5025058;28;20041;-68
2022/10/16 00:03:56;;;;;;;2.10;0.90;;;16.50;99.90;;;;;;5026335;28;20029;-70
2022/10/16 00:06:23;;;;;;;2.20;0.50;;;16.50;99.90;;;;;;5027491;28;20043;-71
2022/10/16 00:08:49;;;;;;;3.47;0.90;;;16.50;99.90;;;;;;5026700;28;20029;-72
2022/10/16 00:11:27;;;;;;;5.30;0.80;;;16.50;99.90;;;;;;5020750;28;20021;-72
2022/10/16 00:13:58;;;;;;;0.75;0.60;;;16.40;99.90;;;;;;5026191;28;20394;-70
2022/10/16 00:16:28;;;;;;;1.08;0.70;;;16.50;99.90;;;;;;5024852;28;20121;-71
2022/10/16 00:18:54;;;;;;;1.77;0.77;;;16.40;99.90;;;;;;5030140;28;20073;-71
2022/10/16 00:21:25;;;;;;;1.80;0.70;;;16.40;99.90;;;;;;5022175;28;20060;-70
2022/10/16 00:24:11;;;;;;;5.50;0.80;;;16.40;99.90;;;;;;5025424;28;20490;-70
2022/10/16 00:26:49;;;;;;;2.55;0.95;;;16.40;99.90;;;;;;5025007;28;20059;-71
2022/10/16 00:29:18;;;;;;;2.72;0.70;;;16.40;99.90;;;;;;5027883;28;20516;-71
2022/10/16 00:31:44;;;;;;;3.85;1.13;;;16.40;99.90;;;;;;5026578;28;20479;-70
2022/10/16 00:34:13;;;;;;;4.05;0.63;;;16.30;99.90;;;;;;5025559;28;20029;-70
2022/10/16 00:36:41;;;;;;;2.58;0.85;;;16.30;99.90;;;;;;5019325;28;20037;-70
2022/10/16 00:39:07;;;;;;;3.33;0.68;;;16.30;99.90;;;;;;5030321;28;20026;-71
2022/10/16 00:41:35;;;;;;;1.15;0.70;;;16.30;99.90;;;;;;5026941;28;20104;-71
2022/10/16 00:44:04;;;;;;;6.18;1.00;;;16.30;99.90;;;;;;5027907;28;20026;-71
2022/10/16 00:46:39;;;;;;;0.82;0.63;;;16.20;99.90;;;;;;5021685;28;20038;-69
2022/10/16 00:49:08;;;;;;;2.25;0.68;;;16.20;99.90;;;;;;5027590;28;20021;-71
2022/10/16 00:51:53;;;;;;;1.83;0.93;;;16.20;99.90;;;;;;5023738;28;20105;-71
2022/10/16 00:54:30;;;;;;;4.82;0.85;;;16.20;99.90;;;;;;5024355;28;20029;-70
2022/10/16 00:56:59;;;;;;;2.08;0.82;;;16.20;99.90;;;;;;5026841;28;20119;-71
2022/10/16 00:59:35;;;;;;;3.53;0.80;;;16.20;99.90;;;;;;5018587;28;20487;-72
2022/10/16 01:02:06;;;;;;;3.22;1.05;;;16.20;99.90;;;;;;5023959;28;20394;-68
2022/10/16 01:04:59;;;;;;;2.38;0.75;;;16.20;99.90;;;;;;5021549;28;20060;-71
2022/10/16 01:07:47;;;;;;;2.42;1.17;;;16.20;99.90;;;;;;5023107;28;20545;-71
2022/10/16 01:10:31;;;;;;;1.67;0.90;;;16.10;99.90;;;;;;5026019;28;20128;-71
2022/10/16 01:13:03;;;;;;;4.43;0.80;;;16.20;99.90;;;;;;5026021;28;20543;-70
2022/10/16 01:15:47;;;;;;;4.28;0.70;;;16.10;99.90;;;;;;5023898;28;20022;-72
2022/10/16 01:18:37;;;;;;;2.45;0.82;;;16.10;99.90;;;;;;5026860;28;20041;-71
2022/10/16 01:21:05;;;;;;;1.25;0.88;;;16.20;99.90;;;;;;5023092;28;20066;-72
2022/10/16 01:23:44;;;;;;;3.85;0.75;;;16.20;99.90;;;;;;5024063;28;20099;-72
2022/10/16 01:26:47;;;;;;;3.05;0.70;;;16.20;99.90;;;;;;5021332;28;20076;-71
2022/10/16 01:29:29;;;;;;;2.58;0.80;;;16.20;99.90;;;;;;5020080;28;20080;-72
2022/10/16 01:32:05;;;;;;;2.22;0.70;;;16.20;99.90;;;;;;5026365;28;20017;-72
2022/10/16 01:34:59;;;;;;;3.30;0.65;;;16.20;99.90;;;;;;5037560;28;20116;-71
2022/10/16 01:37:48;;;;;;;1.67;0.90;;;16.20;99.90;;;;;;5002185;28;20116;-72
2022/10/16 01:40:17;;;;;;;1.45;1.00;;;16.20;99.90;;;;;;5027077;28;20112;-72
2022/10/16 01:42:50;;;;;;;1.38;0.70;;;16.20;99.90;;;;;;5023367;28;20018;-72
2022/10/16 01:45:18;;;;;;;4.10;1.35;;;16.20;99.90;;;;;;5021521;28;20097;-71
2022/10/16 01:47:46;;;;;;;5.82;0.77;;;16.20;99.90;;;;;;5023604;28;20394;-71
2022/10/16 01:50:13;;;;;;;4.18;0.93;;;16.20;99.90;;;;;;5033884;28;20048;-71
2022/10/16 01:52:52;;;;;;;1.50;0.70;;;16.20;99.90;;;;;;5023926;28;20037;-71
2022/10/16 01:55:24;;;;;;;2.85;1.17;;;16.20;99.90;;;;;;5023015;28;20568;-68
2022/10/16 01:57:54;;;;;;;0.98;0.80;;;16.20;99.90;;;;;;5024915;28;20355;-71
2022/10/16 02:00:22;;;;;;;2.13;0.90;;;16.20;99.90;;;;;;5021352;28;20128;-71
2022/10/16 02:02:52;;;;;;;3.25;1.27;;;16.20;99.90;;;;;;5023637;28;20030;-71
2022/10/16 02:05:39;;;;;;;1.85;0.90;;;16.10;99.90;;;;;;5022287;28;20042;-70
2022/10/16 02:08:12;;;;;;;3.72;1.23;;;16.20;99.90;;;;;;5023514;28;20037;-71
2022/10/16 02:10:41;;;;;;;3.10;1.02;;;16.10;99.90;;;;;;5019900;28;20047;-67
2022/10/16 02:13:26;;;;;;;1.77;0.73;;;16.10;99.90;;;;;;5026293;28;20135;-70
2022/10/16 02:15:52;;;;;;;3.08;0.90;;;16.20;99.90;;;;;;5022832;28;20239;-70
2022/10/16 02:18:18;;;;;;;3.45;0.85;;;16.20;99.90;;;;;;5036909;22;20120;-83
2022/10/16 02:21:16;;;;;;;4.00;0.85;;;16.20;99.90;;;;;;5025006;28;20108;-83
2022/10/16 02:24:08;;;;;;;1.77;0.90;;;16.20;99.90;;;;;;5024961;28;20557;-83
2022/10/16 02:27:08;;;;;;;2.95;0.95;;;16.20;99.90;;;;;;5042560;28;20026;-83
2022/10/16 02:32:14;;;;;;;2.30;0.80;;;16.20;99.90;;;;;;5029796;28;20497;-77
2022/10/16 02:34:44;;;;;;;10.52;1.15;;;16.30;99.90;;;;;;5031143;28;20033;-77
2022/10/16 02:37:10;;;;;;;1.02;0.70;;;16.30;99.90;;;;;;5030274;28;20026;-77
2022/10/16 02:39:38;;;;;;;2.75;0.80;;;16.30;99.90;;;;;;5031500;28;20052;-77
2022/10/16 02:42:03;;;;;;;2.65;0.73;;;16.30;99.90;;;;;;5026127;28;20083;-76
2022/10/16 02:44:32;;;;;;;3.83;0.90;;;16.30;99.90;;;;;;5031548;28;20466;-76
2022/10/16 02:46:58;;;;;;;3.22;0.90;;;16.30;99.90;;;;;;5024295;28;20091;-77
2022/10/16 02:49:23;;;;;;;5.72;1.17;;;16.30;99.90;;;;;;5019387;28;20029;-77
2022/10/16 02:51:51;;;;;;;1.92;1.00;;;16.30;99.90;;;;;;5031087;28;20056;-76
2022/10/16 02:54:20;;;;;;;3.45;0.80;;;16.30;99.90;;;;;;5031241;28;20025;-76
2022/10/16 02:56:52;;;;;;;4.47;1.08;;;16.30;99.90;;;;;;5043080;28;20032;-77
2022/10/16 02:59:17;;;;;;;1.83;0.90;;;16.30;99.90;;;;;;5012642;28;20498;-76
2022/10/16 03:01:43;;;;;;;3.33;0.80;;;16.30;99.90;;;;;;5012119;28;20108;-78
2022/10/16 03:04:09;;;;;;;4.40;1.10;;;16.30;99.90;;;;;;5022329;28;20024;-76
2022/10/16 03:06:35;;;;;;;1.92;0.80;;;16.30;99.90;;;;;;5013530;28;20112;-76
2022/10/16 03:09:07;;;;;;;2.75;0.82;;;16.30;99.90;;;;;;5047022;28;20032;-75
2022/10/16 03:11:39;;;;;;;4.30;0.80;;;16.30;99.90;;;;;;5031711;28;20104;-75
2022/10/16 03:14:05;;;;;;;1.48;0.80;;;16.30;99.90;;;;;;5032094;28;20434;-77
2022/10/16 03:16:30;;;;;;;0.90;0.70;;;16.30;99.90;;;;;;5032040;28;20025;-78
2022/10/16 03:18:56;;;;;;;2.45;0.73;;;16.30;99.90;;;;;;5034924;28;20029;-78
2022/10/16 03:21:31;;;;;;;1.50;0.93;;;16.20;99.90;;;;;;5027824;28;20064;-78
2022/10/16 03:23:56;;;;;;;4.68;0.80;;;16.20;99.90;;;;;;5027610;28;20030;-77
2022/10/16 03:26:22;;;;;;;2.92;0.80;;;16.20;99.90;;;;;;5033956;28;20524;-78
2022/10/16 03:28:47;;;;;;;7.40;0.80;;;16.20;99.90;;;;;;5033337;28;20466;-78
2022/10/16 03:31:13;;;;;;;2.30;0.82;;;16.20;99.90;;;;;;5032547;28;20040;-78
2022/10/16 03:33:39;;;;;;;5.30;1.15;;;16.20;99.90;;;;;;5032892;28;20068;-77
2022/10/16 03:36:07;;;;;;;2.50;0.80;;;16.20;99.90;;;;;;5049257;28;20026;-78
2022/10/16 03:38:33;;;;;;;1.88;0.90;;;16.20;99.90;;;;;;5034041;28;20029;-78
2022/10/16 03:40:58;;;;;;;1.95;0.82;;;16.10;99.90;;;;;;5032566;28;20033;-77
2022/10/16 03:43:24;;;;;;;3.53;0.90;;;16.10;99.90;;;;;;5033299;28;20026;-79
2022/10/16 03:45:56;;;;;;;1.27;0.80;;;16.00;99.90;;;;;;5037556;28;20020;-79
2022/10/16 03:48:21;;;;;;;2.65;0.90;;;16.00;99.90;;;;;;5035181;28;20105;-77
2022/10/16 03:50:51;;;;;;;2.42;0.70;;;16.00;99.90;;;;;;5043075;28;20037;-78
2022/10/16 03:53:17;;;;;;;3.80;0.90;;;15.90;99.90;;;;;;5035759;28;20512;-77
2022/10/16 03:55:49;;;;;;;5.72;1.08;;;15.90;99.90;;;;;;5050309;28;20021;-77
2022/10/16 03:58:15;;;;;;;2.28;0.90;;;15.90;99.90;;;;;;5038588;28;20478;-77
2022/10/16 04:00:42;;;;;;;6.18;0.85;;;15.90;99.90;;;;;;5033517;28;20039;-76
2022/10/16 04:03:08;;;;;;;3.03;0.98;;;15.90;99.90;;;;;;5038686;28;20021;-78
2022/10/16 04:05:33;;;;;;;4.03;1.10;;;15.90;99.90;;;;;;5042431;28;20040;-78
2022/10/16 04:08:03;;;;;;;3.10;1.20;;;15.80;99.90;;;;;;5042272;28;20072;-79
2022/10/16 04:10:28;;;;;;;1.73;1.02;;;15.80;99.90;;;;;;5035030;28;20033;-77
2022/10/16 04:12:55;;;;;;;1.52;0.95;;;15.80;99.90;;;;;;5034742;28;20498;-77
2022/10/16 04:15:22;;;;;;;3.95;1.45;;;15.80;99.90;;;;;;5036412;28;20028;-78
2022/10/16 04:17:51;;;;;;;2.50;0.80;;;15.80;99.90;;;;;;5051334;28;20112;-78
2022/10/16 04:20:17;;;;;;;2.85;1.30;;;15.80;99.90;;;;;;5025548;28;20029;-77
2022/10/16 04:22:46;;;;;;;3.25;1.00;;;15.80;99.90;;;;;;5046085;28;20027;-77
2022/10/16 04:25:12;;;;;;;2.60;0.90;;;15.80;99.90;;;;;;5030380;28;20026;-78
2022/10/16 04:27:39;;;;;;;2.63;1.33;;;15.80;99.90;;;;;;5033810;28;20037;-76
2022/10/16 04:30:07;;;;;;;2.97;1.30;;;15.70;99.90;;;;;;5034872;28;20060;-78
2022/10/16 04:32:33;;;;;;;2.55;1.23;;;15.70;99.90;;;;;;5031864;28;20034;-77
2022/10/16 04:34:59;;;;;;;1.77;1.00;;;15.70;99.90;;;;;;5034597;28;20060;-79
2022/10/16 04:37:25;;;;;;;10.95;1.23;;;15.70;99.90;;;;;;5036795;28;20366;-78
2022/10/16 04:39:54;;;;;;;2.75;1.20;;;15.70;99.90;;;;;;5037869;28;20571;-79
2022/10/16 04:42:26;;;;;;;2.97;1.35;;;15.70;99.90;;;;;;5034020;28;20060;-78
2022/10/16 04:44:58;;;;;;;4.88;1.30;;;15.70;99.90;;;;;;5035972;28;20021;-78
2022/10/16 04:47:23;;;;;;;2.22;1.30;;;15.70;99.90;;;;;;5054165;28;20037;-78
2022/10/16 04:49:49;;;;;;;2.17;1.50;;;15.70;99.90;;;;;;5040488;28;20018;-78
2022/10/16 04:52:18;;;;;;;4.22;1.50;;;15.70;99.90;;;;;;5039283;28;20075;-78
2022/10/16 04:54:45;;;;;;;2.55;1.23;;;15.70;99.90;;;;;;5029164;28;20041;-78
2022/10/16 04:57:13;;;;;;;2.35;1.27;;;15.60;99.90;;;;;;5055914;28;20045;-79
2022/10/16 04:59:39;;;;;;;2.65;1.23;;;15.70;99.90;;;;;;5038477;28;20149;-78
2022/10/16 05:02:05;;;;;;;2.10;1.17;;;15.60;99.90;;;;;;5039930;28;20049;-78
2022/10/16 05:04:34;;;;;;;2.70;1.30;;;15.60;99.90;;;;;;5051920;28;20045;-79
2022/10/16 05:07:00;;;;;;;5.25;1.15;;;15.60;99.90;;;;;;5053251;28;20045;-78
2022/10/16 05:09:25;;;;;;;2.95;1.20;;;15.60;99.90;;;;;;5038479;28;20009;-78
2022/10/16 05:11:51;;;;;;;5.05;1.42;;;15.60;99.90;;;;;;5036420;28;20466;-77
2022/10/16 05:14:16;;;;;;;3.63;1.73;;;15.60;99.90;;;;;;5035821;28;20041;-77
2022/10/16 05:16:45;;;;;;;4.93;1.30;;;15.60;99.90;;;;;;5035948;28;20037;-78
2022/10/16 05:19:11;;;;;;;3.50;1.20;;;15.50;99.90;;;;;;5037388;28;20589;-78
2022/10/16 05:21:36;;;;;;;2.92;1.10;;;15.50;99.90;;;;;;5054152;28;20052;-79
2022/10/16 05:24:09;;;;;;;1.65;0.85;;;15.50;99.90;;;;;;5032099;28;20032;-78
2022/10/16 05:26:41;;;;;;;1.65;1.10;;;15.50;99.90;;;;;;5035111;28;20079;-78
2022/10/16 05:29:09;;;;;;;2.78;1.05;;;15.50;99.90;;;;;;5052894;28;20389;-78
2022/10/16 05:31:38;;;;;;;1.85;1.13;;;15.50;99.90;;;;;;5037762;28;20033;-79
2022/10/16 05:34:04;;;;;;;2.80;1.60;;;15.40;99.90;;;;;;5038718;28;20029;-78
2022/10/16 05:36:32;;;;;;;4.60;2.00;;;15.40;99.90;;;;;;5039878;28;20029;-79
2022/10/16 05:38:58;;;;;;;5.65;1.75;;;15.40;99.90;;;;;;5037107;28;20025;-80
2022/10/16 05:41:26;;;;;;;7.40;2.10;;;15.40;99.90;;;;;;5029700;28;20105;-78
2022/10/16 05:43:53;;;;;;;4.88;2.08;;;15.30;99.90;;;;;;5036158;28;20474;-79
2022/10/16 05:46:21;;;;;;;7.65;2.63;;;15.30;99.90;;;;;;5034380;28;20112;-78
2022/10/16 05:48:47;;;;;;;9.85;2.72;;;15.30;99.90;;;;;;5034867;28;20501;-78
2022/10/16 05:51:16;;;;;;;5.18;2.30;;;15.20;99.90;;;;;;5038179;28;20026;-78
2022/10/16 05:53:47;;;;;;;4.65;2.10;;;15.20;99.90;;;;;;5045246;28;20446;-78
2022/10/16 05:56:13;;;;;;;6.40;1.90;;;15.20;99.90;;;;;;5036990;28;20058;-78
2022/10/16 05:58:43;;;;;;;7.28;3.03;;;15.20;99.90;;;;;;5052399;28;20009;-78
2022/10/16 06:01:18;;;;;;;7.30;2.45;;;15.20;99.90;;;;;;5051262;28;20026;-78
2022/10/16 06:03:46;;;;;;;4.70;2.38;;;15.20;99.90;;;;;;5027537;28;20026;-78
2022/10/16 06:06:13;;;;;;;5.32;2.42;;;15.20;99.90;;;;;;5035266;28;20104;-78
2022/10/16 06:08:40;;;;;;;6.70;2.33;;;15.20;99.90;;;;;;5033552;28;20018;-78
2022/10/16 06:11:11;;;;;;;3.28;2.03;;;15.20;99.90;;;;;;5035725;28;20018;-77
2022/10/16 06:13:37;;;;;;;9.10;1.90;;;15.20;99.90;;;;;;5033173;28;20029;-78
2022/10/16 06:16:06;;;;;;;4.05;1.42;;;15.20;99.90;;;;;;5028902;28;20018;-77
2022/10/16 06:18:53;;;;;;;10.18;2.53;;;15.30;99.90;;;;;;5026267;28;20107;-78
2022/10/16 06:21:27;;;;;;;4.85;2.08;;;15.30;99.90;;;;;;5033909;28;20033;-77
2022/10/16 06:23:56;;;;;;;6.07;1.85;;;15.30;99.90;;;;;;5031211;28;20017;-78
2022/10/16 06:26:24;;;;;;;5.18;1.83;;;15.30;99.90;;;;;;5052128;28;20112;-77
2022/10/16 06:28:50;;;;;;;3.47;1.88;;;15.30;99.90;;;;;;5051749;28;20014;-78
2022/10/16 06:31:30;;;;;;;7.40;1.40;;;15.30;99.90;;;;;;5034939;28;20113;-78
2022/10/16 06:33:57;;;;;;;6.55;2.13;;;15.30;99.90;;;;;;5031252;28;20067;-78
2022/10/16 06:36:23;;;;;;;4.47;1.63;;;15.30;99.90;;;;;;5049911;28;20087;-79
2022/10/16 06:38:52;;;;;;;3.95;1.40;;;15.30;99.90;;;;;;5038595;28;20030;-80
2022/10/16 06:41:21;;;;;;;3.10;1.92;;;15.30;99.90;;;;;;5033613;28;20116;-78
2022/10/16 06:43:46;;;;;;;9.15;2.10;;;15.40;99.90;;;;;;5036398;28;20033;-78
2022/10/16 06:46:18;;;;;;;6.68;2.13;;;15.40;99.90;;;;;;5030770;28;20079;-80
2022/10/16 06:48:44;;;;;;;7.90;2.63;;;15.40;99.90;;;;;;5051517;28;20037;-79
2022/10/16 06:51:15;;;;;;;3.28;1.77;;;15.50;99.90;;;;;;5030221;28;20018;-79
2022/10/16 06:53:53;;;;;;;13.73;2.10;;;15.50;99.90;;;;;;5036542;28;20021;-79
2022/10/16 06:56:22;;;;;;;5.97;1.85;;;15.60;99.90;;;;;;5033813;28;20032;-77
2022/10/16 06:58:49;;;;;;;4.50;2.22;;;15.60;99.90;;;;;;5033955;28;20026;-77
2022/10/16 07:01:20;;;;;;;4.00;2.03;;;15.70;99.90;;;;;;5034208;28;20052;-77
2022/10/16 07:03:55;;;;;;;5.57;2.00;;;15.70;99.90;;;;;;5014922;28;20026;-76
2022/10/16 07:06:22;;;;;;;5.63;1.70;;;15.70;99.90;;;;;;5030414;28;20109;-77
2022/10/16 07:08:54;;;;;;;3.75;1.73;;;15.80;99.90;;;;;;5037908;28;20152;-78
2022/10/16 07:11:22;;;;;;;5.55;2.05;;;15.80;99.90;;;;;;5037530;28;20022;-77
2022/10/16 07:13:50;;;;;;;5.50;1.77;;;15.80;99.90;;;;;;5038254;28;20471;-78
2022/10/16 07:16:27;;;;;;;3.38;1.83;;;15.90;99.90;;;;;;5032500;28;20025;-79
2022/10/16 07:18:58;;;;;;;9.18;2.22;;;15.90;99.90;;;;;;5051360;28;20018;-80
2022/10/16 07:21:35;;;;;;;5.15;2.13;;;16.00;99.90;;;;;;5031220;28;20035;-78
2022/10/16 07:24:10;;;;;;;4.93;1.90;;;16.00;99.90;;;;;;5038947;28;20052;-81
2022/10/16 07:26:38;;;;;;;3.92;1.60;;;16.10;99.90;;;;;;5027467;28;20093;-77
2022/10/16 07:29:05;;;;;;;3.05;1.70;;;16.10;99.90;;;;;;5035672;28;20041;-77
2022/10/16 07:31:34;;;;;;;8.00;1.83;;;16.10;99.90;;;;;;5035964;28;20110;-80
2022/10/16 07:34:00;;;;;;;3.25;2.25;;;16.20;99.90;;;;;;5034162;28;20021;-80
2022/10/16 07:36:26;;;;;;;3.95;1.98;;;16.20;99.90;;;;;;5034144;28;20030;-80
2022/10/16 07:38:58;;;;;;;3.63;1.67;;;16.20;99.90;;;;;;5037024;28;20176;-78
2022/10/16 07:41:27;;;;;;;4.38;1.70;;;16.20;99.90;;;;;;5056619;28;20120;-78
2022/10/16 07:43:59;;;;;;;7.45;1.88;;;16.30;99.90;;;;;;5035354;28;20021;-77
2022/10/16 07:46:32;;;;;;;4.70;1.90;;;16.30;99.90;;;;;;5039683;28;20032;-78
2022/10/16 07:48:58;;;;;;;3.50;2.17;;;16.40;99.90;;;;;;5040265;28;20022;-78
2022/10/16 07:51:25;;;;;;;3.60;1.67;;;16.40;99.90;;;;;;5039349;28;20071;-78
2022/10/16 07:53:52;;;;;;;7.65;1.80;;;16.40;99.90;;;;;;5039117;28;20155;-77
2022/10/16 07:56:24;;;;;;;2.28;1.70;;;16.50;99.90;;;;;;5055914;28;20060;-76
2022/10/16 07:58:50;;;;;;;5.22;1.90;;;16.50;99.90;;;;;;5034456;28;20071;-77
2022/10/16 08:01:16;;;;;;;5.70;1.88;;;16.60;99.90;;;;;;5033767;28;20048;-78
2022/10/16 08:03:47;;;;;;;4.57;2.10;;;16.70;99.90;;;;;;5049592;28;20033;-76
2022/10/16 08:06:13;;;;;;;4.35;2.13;;;16.80;99.90;;;;;;5050929;28;20024;-77
2022/10/16 08:08:39;;;;;;;5.68;1.92;;;16.90;99.90;;;;;;5032698;28;20030;-78
2022/10/16 08:11:08;;;;;;;4.20;1.85;;;17.00;99.90;;;;;;5030862;28;20147;-77
2022/10/16 08:13:33;;;;;;;2.80;1.33;;;17.00;99.90;;;;;;5034547;28;20033;-78
2022/10/16 08:16:07;;;;;;;3.58;1.70;;;17.10;99.90;;;;;;5035873;28;20033;-78
2022/10/16 08:18:35;;;;;;;3.65;1.92;;;17.10;99.90;;;;;;5027863;28;20021;-74
2022/10/16 08:21:01;;;;;;;10.20;2.35;;;17.20;99.90;;;;;;5025607;28;20025;-75
2022/10/16 08:23:29;;;;;;;3.00;1.65;;;17.30;99.90;;;;;;5028822;28;20049;-75
2022/10/16 08:26:21;;;;;;;5.45;1.83;;;17.30;99.90;;;;;;5028256;28;20477;-75
2022/10/16 08:28:50;;;;;;;6.10;2.38;;;17.40;99.90;;;;;;5018736;28;20042;-74
2022/10/16 08:31:22;;;;;;;3.10;2.00;;;17.40;99.90;;;;;;5029590;28;20148;-74
2022/10/16 08:33:48;;;;;;;6.00;2.30;;;17.50;99.90;;;;;;5027690;28;20053;-75
2022/10/16 08:36:15;;;;;;;5.18;1.85;;;17.50;99.90;;;;;;5027382;28;20053;-76
2022/10/16 08:38:41;;;;;;;5.15;1.52;;;17.60;99.90;;;;;;5028697;28;20038;-75
2022/10/16 08:41:29;;;;;;;2.67;1.77;;;17.70;99.90;;;;;;5027321;28;20031;-75
2022/10/16 08:44:09;;;;;;;4.70;1.98;;;17.70;99.90;;;;;;5025638;28;20053;-74
2022/10/16 08:47:04;;;;;;;2.20;1.65;;;17.80;99.90;;;;;;5024016;28;20494;-74
2022/10/16 08:49:30;;;;;;;4.07;2.03;;;17.90;99.90;;;;;;5000539;28;20482;-75
2022/10/16 08:51:57;;;;;;;2.38;1.30;;;18.00;99.90;;;;;;5025912;28;20279;-75
2022/10/16 08:54:53;;;;;;;4.10;1.65;;;18.00;99.90;;;;;;5026866;28;20060;-74
2022/10/16 08:57:21;;;;;;;3.97;1.55;;;18.10;99.90;;;;;;5000620;28;20069;-76
2022/10/16 08:59:47;;;;;;;1.95;1.60;;;18.20;99.90;;;;;;5022216;28;21296;-76
2022/10/16 09:02:33;;;;;;;3.85;1.42;;;18.30;99.90;;;;;;5043962;28;20033;-76
2022/10/16 09:05:28;;;;;;;5.15;1.80;;;18.40;99.90;;;;;;5023168;28;20022;-76
2022/10/16 09:08:21;;;;;;;2.88;1.63;;;18.50;99.90;;;;;;5014996;28;20383;-76
2022/10/16 09:11:00;;;;;;;3.38;1.55;;;18.50;99.90;;;;;;5044453;28;20098;-76
2022/10/16 09:13:44;;;;;;;2.58;1.23;;;18.70;99.90;;;;;;5027626;28;20025;-75
2022/10/16 09:16:41;;;;;;;2.67;1.40;;;18.70;99.90;;;;;;5021624;28;20045;-76
2022/10/16 09:19:25;;;;;;;3.05;1.38;;;18.80;99.90;;;;;;5041999;28;20271;-76
2022/10/16 09:21:52;;;;;;;2.90;1.40;;;18.90;99.90;;;;;;5027633;28;20159;-75
2022/10/16 09:24:25;;;;;;;3.65;1.08;;;19.00;99.90;;;;;;5028484;28;20100;-75
2022/10/16 09:26:51;;;;;;;1.67;1.00;;;19.10;99.90;;;;;;5021944;28;20728;-76
2022/10/16 09:29:24;;;;;;;3.60;0.90;;;19.20;99.90;;;;;;5044347;28;20092;-75
2022/10/16 09:31:52;;;;;;;1.73;1.20;;;19.20;99.90;;;;;;5028732;28;20152;-75
2022/10/16 09:34:36;;;;;;;5.07;1.10;;;19.20;99.90;;;;;;5028486;28;20033;-75
2022/10/16 09:37:09;;;;;;;3.03;1.42;;;19.30;99.90;;;;;;5023328;28;20036;-76
2022/10/16 09:39:52;;;;;;;3.47;1.15;;;19.30;99.90;;;;;;5029583;28;20105;-76
2022/10/16 09:42:32;;;;;;;5.68;1.55;;;19.40;99.90;;;;;;5043561;28;20036;-76
2022/10/16 09:44:58;;;;;;;2.45;1.42;;;19.50;99.90;;;;;;5042357;28;20029;-76
2022/10/16 09:47:28;;;;;;;2.80;1.38;;;19.50;99.90;;;;;;5029713;28;20049;-76
2022/10/16 09:50:19;;;;;;;4.30;1.38;;;19.50;99.90;;;;;;5025751;28;20562;-76
2022/10/16 09:52:44;;;;;;;1.88;1.25;;;19.60;99.90;;;;;;5027823;28;20022;-77
2022/10/16 09:55:16;;;;;;;3.28;1.35;;;19.70;99.90;;;;;;5027249;28;20036;-75
2022/10/16 09:57:55;;;;;;;4.00;1.40;;;19.70;99.90;;;;;;5028133;28;20116;-76
2022/10/16 10:00:23;;;;;;;3.15;1.30;;;19.70;99.90;;;;;;5027505;28;20101;-76
2022/10/16 10:02:49;;;;;;;3.25;1.40;;;19.70;99.90;;;;;;5029035;28;20021;-76
2022/10/16 10:05:26;;;;;;;3.10;1.08;;;19.80;99.90;;;;;;5029178;28;20038;-76
2022/10/16 10:08:05;;;;;;;3.30;1.17;;;19.80;99.90;;;;;;5030952;28;20033;-76
2022/10/16 10:10:33;;;;;;;2.25;1.20;;;19.80;99.90;;;;;;5024221;28;20048;-76
2022/10/16 10:12:59;;;;;;;5.15;1.38;;;19.90;99.90;;;;;;5044018;28;20063;-76
2022/10/16 10:15:27;;;;;;;3.40;1.40;;;19.90;99.90;;;;;;5026262;28;20048;-75
2022/10/16 10:17:55;;;;;;;4.07;1.30;;;19.90;99.90;;;;;;5040290;28;20422;-76
2022/10/16 10:20:37;;;;;;;2.58;0.90;;;19.90;99.90;;;;;;5028469;28;20116;-75
2022/10/16 10:23:26;;;;;;;2.95;1.30;;;19.80;99.90;;;;;;5023566;28;20623;-75
2022/10/16 10:26:18;;;;;;;1.75;1.08;;;19.80;99.90;;;;;;5027494;28;20025;-75
2022/10/16 10:28:49;;;;;;;2.53;1.17;;;19.90;99.90;;;;;;5036840;28;20443;-75
2022/10/16 10:31:36;;;;;;;1.80;1.13;;;20.00;99.90;;;;;;5025137;28;20061;-75
2022/10/16 10:34:54;;;;;;;2.03;1.38;;;20.10;99.90;;;;;;5043258;28;20037;-75
2022/10/16 10:37:28;;;;;;;2.50;1.27;;;20.30;99.90;;;;;;4993703;28;20042;-76
2022/10/16 10:40:15;;;;;;;4.70;1.17;;;20.50;99.90;;;;;;5029630;28;20079;-76
2022/10/16 10:43:07;;;;;;;2.92;1.40;;;20.60;99.90;;;;;;5024800;28;20076;-76
2022/10/16 10:45:46;;;;;;;2.67;1.20;;;20.70;99.90;;;;;;5015904;28;20117;-75
2022/10/16 10:48:29;;;;;;;2.13;1.10;;;20.80;99.90;;;;;;5031595;28;20116;-75
2022/10/16 10:51:10;;;;;;;8.43;1.30;;;20.80;99.90;;;;;;5043111;28;20056;-75
2022/10/16 10:53:54;;;;;;;2.08;1.02;;;20.80;99.90;;;;;;5026253;28;20029;-75
2022/10/16 10:56:47;;;;;;;3.63;1.05;;;20.90;99.90;;;;;;5020292;28;20066;-75
2022/10/16 10:59:27;;;;;;;6.13;1.40;;;20.90;99.90;;;;;;5022020;28;20053;-72
2022/10/16 11:02:04;;;;;;;4.20;1.10;;;21.00;99.90;;;;;;5023543;28;20462;-71
2022/10/16 11:05:30;;;;;;;3.15;0.90;;;21.00;99.90;;;;;;5028820;28;20025;-72
2022/10/16 11:08:10;;;;;;;3.35;0.98;;;21.00;99.90;;;;;;4948192;28;20130;-76
2022/10/16 11:10:43;;;;;;;3.08;1.00;;;21.10;99.90;;;;;;4950356;28;20034;-76
2022/10/16 11:13:38;;;;;;;6.20;1.88;;;21.20;99.90;;;;;;5006756;28;20029;-76
2022/10/16 11:16:15;;;;;;;4.97;1.13;;;21.30;99.90;;;;;;5031611;28;20109;-76
2022/10/16 11:19:19;;;;;;;6.75;1.10;;;21.40;99.90;;;;;;5032501;28;20026;-76
2022/10/16 11:22:21;;;;;;;3.30;1.17;;;21.50;99.90;;;;;;5026130;28;20022;-76
2022/10/16 11:24:53;;;;;;;2.08;0.82;;;21.50;99.90;;;;;;4991740;28;20033;-77
2022/10/16 11:27:43;;;;;;;6.30;1.13;;;21.60;99.90;;;;;;5028796;28;20030;-78
2022/10/16 11:30:29;;;;;;;1.95;1.00;;;21.70;99.50;;;;;;5023697;28;20065;-75
2022/10/16 11:33:18;;;;;;;3.10;0.73;;;21.70;99.30;;;;;;5045446;28;20055;-76
2022/10/16 11:36:14;;;;;;;2.67;0.93;;;21.70;99.00;;;;;;4985585;28;20474;-76
2022/10/16 11:39:10;;;;;;;4.43;1.10;;;21.80;98.60;;;;;;5027668;28;20699;-77
2022/10/16 11:41:56;;;;;;;1.70;0.90;;;21.80;98.10;;;;;;5028161;28;20022;-75
2022/10/16 11:44:38;;;;;;;1.98;0.80;;;21.90;98.00;;;;;;5029435;28;20079;-76
2022/10/16 11:47:22;;;;;;;4.15;0.98;;;21.90;97.30;;;;;;5024266;28;20029;-75
2022/10/16 11:50:22;;;;;;;1.48;0.85;;;22.00;97.10;;;;;;5029600;28;20565;-76
2022/10/16 11:53:09;;;;;;;3.40;0.90;;;22.00;97.10;;;;;;5019019;28;20080;-76
2022/10/16 11:55:43;;;;;;;2.70;1.10;;;22.00;96.90;;;;;;5033262;28;20106;-77
2022/10/16 11:58:33;;;;;;;1.25;0.90;;;22.00;97.00;;;;;;5024916;28;20037;-76
2022/10/16 12:01:27;;;;;;;1.80;1.00;;;22.00;97.00;;;;;;5026828;28;20079;-75
2022/10/16 12:04:11;;;;;;;1.92;1.30;;;22.00;96.50;;;;;;4938875;28;20430;-75
2022/10/16 12:06:58;;;;;;;5.90;1.52;;;22.00;96.70;;;;;;5043531;28;20029;-76
2022/10/16 12:09:29;;;;;;;2.00;1.05;;;22.10;96.50;;;;;;5028635;28;20033;-75
2022/10/16 12:11:58;;;;;;;1.50;0.93;;;22.10;96.50;;;;;;5030720;28;20474;-76
2022/10/16 12:14:27;;;;;;;2.97;1.25;;;22.20;96.50;;;;;;5027109;28;20113;-76
2022/10/16 12:17:05;;;;;;;3.63;1.13;;;22.20;96.60;;;;;;5032047;28;20364;-75
2022/10/16 12:19:31;;;;;;;1.60;1.00;;;22.20;96.50;;;;;;5025173;28;20037;-75
2022/10/16 12:21:59;;;;;;;2.05;1.20;;;22.20;96.20;;;;;;5028152;28;20481;-76
2022/10/16 12:24:31;;;;;;;2.83;1.10;;;22.30;96.10;;;;;;5046606;28;20049;-75
2022/10/16 12:27:00;;;;;;;3.42;1.83;;;22.20;96.00;;;;;;5028152;28;20398;-76
2022/10/16 12:29:42;;;;;;;2.50;1.23;;;22.20;96.00;;;;;;5030510;28;20048;-75
2022/10/16 12:32:37;;;;;;;5.70;1.17;;;22.30;96.10;;;;;;5031364;28;20033;-76
2022/10/16 12:35:05;;;;;;;3.03;1.33;;;22.30;96.10;;;;;;5032921;28;20029;-76
2022/10/16 12:37:38;;;;;;;4.22;1.50;;;22.30;96.20;;;;;;5027716;28;20056;-76
2022/10/16 12:40:34;;;;;;;1.30;1.00;;;22.40;96.20;;;;;;5045341;28;20033;-75
2022/10/16 12:43:12;;;;;;;6.80;1.73;;;22.30;95.80;;;;;;5009704;28;20128;-75
2022/10/16 12:45:38;;;;;;;2.88;1.48;;;22.40;95.80;;;;;;5031102;28;20056;-76
2022/10/16 12:48:19;;;;;;;1.83;1.20;;;22.40;95.80;;;;;;5033131;28;20390;-76
2022/10/16 12:50:45;;;;;;;5.00;1.50;;;22.40;95.80;;;;;;5029695;28;20040;-75
2022/10/16 12:53:23;;;;;;;1.58;1.30;;;22.40;95.90;;;;;;5029424;28;20021;-75
2022/10/16 12:55:49;;;;;;;6.32;1.27;;;22.40;95.70;;;;;;5030788;28;20112;-75
2022/10/16 12:58:22;;;;;;;3.58;1.63;;;22.40;95.70;;;;;;5028132;28;20514;-77
2022/10/16 13:00:57;;;;;;;1.50;1.10;;;22.40;95.60;;;;;;5028472;28;20498;-76
2022/10/16 13:03:53;;;;;;;2.67;1.17;;;22.40;95.40;;;;;;5027546;28;20065;-75
2022/10/16 13:06:30;;;;;;;3.65;1.35;;;22.40;95.50;;;;;;5028317;28;20040;-75
2022/10/16 13:09:26;;;;;;;5.40;1.30;;;22.40;95.30;;;;;;5031317;28;20040;-76
2022/10/16 13:12:21;;;;;;;3.33;1.13;;;22.40;95.40;;;;;;5028007;28;20064;-76
2022/10/16 13:15:02;;;;;;;4.30;1.30;;;22.40;95.60;;;;;;5024028;28;20026;-76
2022/10/16 13:18:06;;;;;;;4.15;1.48;;;22.40;95.70;;;;;;5032321;28;20554;-77
2022/10/16 13:20:57;;;;;;;5.00;1.33;;;22.40;95.80;;;;;;4937613;29;20065;-76
2022/10/16 13:23:38;;;;;;;4.28;1.40;;;22.40;95.60;;;;;;4985713;28;20057;-77